sensor_id;sensor_type;location;lat;lon;timestamp;P1;durP1;ratioP1;P2;durP2;ratioP2
39612;SDS011;25303;48.896;13.342;2023-04-01T00:02:23;3.08;;;0.85;;
39612;SDS011;25303;48.896;13.342;2023-04-01T00:05:08;4.93;;;1.50;;
39612;SDS011;25303;48.896;13.342;2023-04-01T00:07:52;5.50;;;1.38;;
39612;SDS011;25303;48.896;13.342;2023-04-01T00:10:35;6.03;;;1.20;;
39612;SDS011;25303;48.896;13.342;2023-04-01T00:13:18;4.25;;;1.30;;
39612;SDS011;25303;48.896;13.342;2023-04-01T00:16:02;3.78;;;1.15;;
39612;SDS011;25303;48.896;13.342;2023-04-01T00:18:58;3.35;;;1.05;;
39612;SDS011;25303;48.896;13.342;2023-04-01T00:21:42;4.38;;;1.10;;
39612;SDS011;25303;48.896;13.342;2023-04-01T00:24:25;3.50;;;1.20;;
39612;SDS011;25303;48.896;13.342;2023-04-01T00:27:08;3.88;;;1.08;;
39612;SDS011;25303;48.896;13.342;2023-04-01T00:29:51;3.25;;;1.20;;
39612;SDS011;25303;48.896;13.342;2023-04-01T00:32:34;4.50;;;1.33;;
39612;SDS011;25303;48.896;13.342;2023-04-01T00:35:18;4.18;;;1.20;;
39612;SDS011;25303;48.896;13.342;2023-04-01T00:38:02;2.75;;;0.98;;
39612;SDS011;25303;48.896;13.342;2023-04-01T00:40:46;4.80;;;1.20;;
39612;SDS011;25303;48.896;13.342;2023-04-01T00:43:29;4.35;;;1.52;;
39612;SDS011;25303;48.896;13.342;2023-04-01T00:46:12;5.63;;;1.10;;
39612;SDS011;25303;48.896;13.342;2023-04-01T00:48:56;4.25;;;1.02;;
39612;SDS011;25303;48.896;13.342;2023-04-01T00:51:39;3.15;;;1.00;;
39612;SDS011;25303;48.896;13.342;2023-04-01T00:54:25;2.35;;;1.02;;
39612;SDS011;25303;48.896;13.342;2023-04-01T00:57:12;3.13;;;1.13;;
39612;SDS011;25303;48.896;13.342;2023-04-01T00:59:58;4.70;;;1.15;;
39612;SDS011;25303;48.896;13.342;2023-04-01T01:02:41;3.83;;;0.98;;
39612;SDS011;25303;48.896;13.342;2023-04-01T01:05:30;8.18;;;1.35;;
39612;SDS011;25303;48.896;13.342;2023-04-01T01:08:31;4.75;;;1.15;;
39612;SDS011;25303;48.896;13.342;2023-04-01T01:11:37;4.55;;;1.17;;
39612;SDS011;25303;48.896;13.342;2023-04-01T01:14:31;5.90;;;1.23;;
39612;SDS011;25303;48.896;13.342;2023-04-01T01:17:26;4.15;;;1.00;;
39612;SDS011;25303;48.896;13.342;2023-04-01T01:20:22;4.78;;;1.25;;
39612;SDS011;25303;48.896;13.342;2023-04-01T01:26:39;5.93;;;1.42;;
39612;SDS011;25303;48.896;13.342;2023-04-01T01:29:41;3.30;;;1.15;;
39612;SDS011;25303;48.896;13.342;2023-04-01T01:32:44;3.60;;;0.90;;
39612;SDS011;25303;48.896;13.342;2023-04-01T01:35:50;6.00;;;1.30;;
39612;SDS011;25303;48.896;13.342;2023-04-01T01:38:36;4.57;;;0.90;;
39612;SDS011;25303;48.896;13.342;2023-04-01T01:41:20;3.10;;;0.90;;
39612;SDS011;25303;48.896;13.342;2023-04-01T01:44:08;4.35;;;1.00;;
39612;SDS011;25303;48.896;13.342;2023-04-01T01:46:54;2.88;;;0.90;;
39612;SDS011;25303;48.896;13.342;2023-04-01T01:49:39;4.50;;;1.00;;
39612;SDS011;25303;48.896;13.342;2023-04-01T01:52:26;2.80;;;0.90;;
39612;SDS011;25303;48.896;13.342;2023-04-01T01:55:24;3.13;;;0.90;;
39612;SDS011;25303;48.896;13.342;2023-04-01T01:58:11;2.63;;;0.77;;
39612;SDS011;25303;48.896;13.342;2023-04-01T02:00:59;3.10;;;1.00;;
39612;SDS011;25303;48.896;13.342;2023-04-01T02:03:46;5.32;;;1.00;;
39612;SDS011;25303;48.896;13.342;2023-04-01T02:06:34;3.25;;;1.08;;
39612;SDS011;25303;48.896;13.342;2023-04-01T02:09:22;3.90;;;0.90;;
39612;SDS011;25303;48.896;13.342;2023-04-01T02:14:54;3.20;;;0.88;;
39612;SDS011;25303;48.896;13.342;2023-04-01T02:17:42;2.80;;;0.80;;
39612;SDS011;25303;48.896;13.342;2023-04-01T02:20:27;4.50;;;0.80;;
39612;SDS011;25303;48.896;13.342;2023-04-01T02:23:12;4.05;;;0.70;;
39612;SDS011;25303;48.896;13.342;2023-04-01T02:25:57;2.60;;;0.70;;
39612;SDS011;25303;48.896;13.342;2023-04-01T02:28:41;1.52;;;0.70;;
39612;SDS011;25303;48.896;13.342;2023-04-01T02:31:27;2.17;;;0.80;;
39612;SDS011;25303;48.896;13.342;2023-04-01T02:34:10;1.88;;;0.80;;
39612;SDS011;25303;48.896;13.342;2023-04-01T02:36:54;4.15;;;1.17;;
39612;SDS011;25303;48.896;13.342;2023-04-01T02:39:38;5.07;;;1.10;;
39612;SDS011;25303;48.896;13.342;2023-04-01T02:42:25;3.35;;;1.33;;
39612;SDS011;25303;48.896;13.342;2023-04-01T02:45:08;3.72;;;0.90;;
39612;SDS011;25303;48.896;13.342;2023-04-01T02:47:52;4.53;;;0.77;;
39612;SDS011;25303;48.896;13.342;2023-04-01T02:50:35;6.18;;;1.00;;
39612;SDS011;25303;48.896;13.342;2023-04-01T02:53:18;4.18;;;1.17;;
39612;SDS011;25303;48.896;13.342;2023-04-01T02:56:01;4.40;;;0.90;;
39612;SDS011;25303;48.896;13.342;2023-04-01T02:58:45;3.03;;;1.00;;
39612;SDS011;25303;48.896;13.342;2023-04-01T03:01:28;2.55;;;0.77;;
39612;SDS011;25303;48.896;13.342;2023-04-01T03:04:11;2.35;;;0.80;;
39612;SDS011;25303;48.896;13.342;2023-04-01T03:06:54;2.88;;;0.80;;
39612;SDS011;25303;48.896;13.342;2023-04-01T03:09:37;2.10;;;0.95;;
39612;SDS011;25303;48.896;13.342;2023-04-01T03:12:21;2.80;;;0.98;;
39612;SDS011;25303;48.896;13.342;2023-04-01T03:15:08;4.85;;;1.10;;
39612;SDS011;25303;48.896;13.342;2023-04-01T03:17:53;2.63;;;0.90;;
39612;SDS011;25303;48.896;13.342;2023-04-01T03:20:36;5.05;;;0.85;;
39612;SDS011;25303;48.896;13.342;2023-04-01T03:23:19;4.15;;;1.05;;
39612;SDS011;25303;48.896;13.342;2023-04-01T03:26:03;1.98;;;0.90;;
39612;SDS011;25303;48.896;13.342;2023-04-01T03:28:47;3.35;;;0.90;;
39612;SDS011;25303;48.896;13.342;2023-04-01T03:31:31;2.42;;;0.80;;
39612;SDS011;25303;48.896;13.342;2023-04-01T03:34:14;3.80;;;1.00;;
39612;SDS011;25303;48.896;13.342;2023-04-01T03:36:57;1.02;;;0.77;;
39612;SDS011;25303;48.896;13.342;2023-04-01T03:39:41;1.70;;;0.80;;
39612;SDS011;25303;48.896;13.342;2023-04-01T03:42:25;2.95;;;0.90;;
39612;SDS011;25303;48.896;13.342;2023-04-01T03:45:08;4.22;;;1.10;;
39612;SDS011;25303;48.896;13.342;2023-04-01T03:47:54;3.42;;;0.90;;
39612;SDS011;25303;48.896;13.342;2023-04-01T03:53:21;4.30;;;1.08;;
39612;SDS011;25303;48.896;13.342;2023-04-01T03:56:05;2.03;;;0.90;;
39612;SDS011;25303;48.896;13.342;2023-04-01T03:58:50;3.80;;;0.90;;
39612;SDS011;25303;48.896;13.342;2023-04-01T04:01:33;3.30;;;0.90;;
39612;SDS011;25303;48.896;13.342;2023-04-01T04:04:18;7.80;;;0.88;;
39612;SDS011;25303;48.896;13.342;2023-04-01T04:07:01;6.07;;;0.90;;
39612;SDS011;25303;48.896;13.342;2023-04-01T04:09:57;3.25;;;0.90;;
39612;SDS011;25303;48.896;13.342;2023-04-01T04:12:40;2.80;;;0.80;;
39612;SDS011;25303;48.896;13.342;2023-04-01T04:15:24;3.60;;;0.90;;
39612;SDS011;25303;48.896;13.342;2023-04-01T04:18:06;6.07;;;0.90;;
39612;SDS011;25303;48.896;13.342;2023-04-01T04:20:51;3.63;;;1.13;;
39612;SDS011;25303;48.896;13.342;2023-04-01T04:23:34;4.93;;;0.93;;
39612;SDS011;25303;48.896;13.342;2023-04-01T04:26:18;1.70;;;0.80;;
39612;SDS011;25303;48.896;13.342;2023-04-01T04:29:08;1.90;;;0.90;;
39612;SDS011;25303;48.896;13.342;2023-04-01T04:31:51;4.75;;;1.02;;
39612;SDS011;25303;48.896;13.342;2023-04-01T04:34:34;6.18;;;1.10;;
39612;SDS011;25303;48.896;13.342;2023-04-01T04:37:18;2.95;;;1.00;;
39612;SDS011;25303;48.896;13.342;2023-04-01T04:40:01;2.47;;;0.90;;
39612;SDS011;25303;48.896;13.342;2023-04-01T04:42:45;2.97;;;1.00;;
39612;SDS011;25303;48.896;13.342;2023-04-01T04:45:30;3.47;;;0.82;;
39612;SDS011;25303;48.896;13.342;2023-04-01T04:48:14;3.90;;;1.20;;
39612;SDS011;25303;48.896;13.342;2023-04-01T04:51:00;1.98;;;0.82;;
39612;SDS011;25303;48.896;13.342;2023-04-01T04:53:45;2.50;;;0.90;;
39612;SDS011;25303;48.896;13.342;2023-04-01T04:56:31;2.17;;;0.85;;
39612;SDS011;25303;48.896;13.342;2023-04-01T04:59:19;1.77;;;0.93;;
39612;SDS011;25303;48.896;13.342;2023-04-01T05:02:16;2.00;;;1.05;;
39612;SDS011;25303;48.896;13.342;2023-04-01T05:05:01;4.20;;;0.90;;
39612;SDS011;25303;48.896;13.342;2023-04-01T05:07:44;2.72;;;0.93;;
39612;SDS011;25303;48.896;13.342;2023-04-01T05:10:28;2.63;;;0.60;;
39612;SDS011;25303;48.896;13.342;2023-04-01T05:13:12;2.45;;;1.05;;
39612;SDS011;25303;48.896;13.342;2023-04-01T05:15:59;3.78;;;0.90;;
39612;SDS011;25303;48.896;13.342;2023-04-01T05:18:42;3.63;;;1.10;;
39612;SDS011;25303;48.896;13.342;2023-04-01T05:21:25;2.42;;;0.90;;
39612;SDS011;25303;48.896;13.342;2023-04-01T05:24:10;3.67;;;0.80;;
39612;SDS011;25303;48.896;13.342;2023-04-01T05:26:55;1.30;;;0.70;;
39612;SDS011;25303;48.896;13.342;2023-04-01T05:29:39;3.65;;;0.95;;
39612;SDS011;25303;48.896;13.342;2023-04-01T05:32:30;3.20;;;0.80;;
39612;SDS011;25303;48.896;13.342;2023-04-01T05:35:14;3.08;;;0.95;;
39612;SDS011;25303;48.896;13.342;2023-04-01T05:37:58;2.30;;;0.80;;
39612;SDS011;25303;48.896;13.342;2023-04-01T05:40:41;1.80;;;0.50;;
39612;SDS011;25303;48.896;13.342;2023-04-01T05:43:25;2.05;;;0.70;;
39612;SDS011;25303;48.896;13.342;2023-04-01T05:46:10;4.68;;;1.17;;
39612;SDS011;25303;48.896;13.342;2023-04-01T05:49:06;1.40;;;0.60;;
39612;SDS011;25303;48.896;13.342;2023-04-01T05:51:50;2.60;;;0.70;;
39612;SDS011;25303;48.896;13.342;2023-04-01T05:57:17;3.47;;;0.80;;
39612;SDS011;25303;48.896;13.342;2023-04-01T06:00:02;3.10;;;0.57;;
39612;SDS011;25303;48.896;13.342;2023-04-01T06:02:52;2.75;;;0.70;;
39612;SDS011;25303;48.896;13.342;2023-04-01T06:05:38;4.05;;;1.02;;
39612;SDS011;25303;48.896;13.342;2023-04-01T06:08:23;1.83;;;0.65;;
39612;SDS011;25303;48.896;13.342;2023-04-01T06:11:12;1.45;;;0.60;;
39612;SDS011;25303;48.896;13.342;2023-04-01T06:14:11;1.85;;;0.50;;
39612;SDS011;25303;48.896;13.342;2023-04-01T06:17:18;2.40;;;0.40;;
39612;SDS011;25303;48.896;13.342;2023-04-01T06:20:11;1.00;;;0.47;;
39612;SDS011;25303;48.896;13.342;2023-04-01T06:23:07;1.48;;;0.50;;
39612;SDS011;25303;48.896;13.342;2023-04-01T06:26:07;2.03;;;0.35;;
39612;SDS011;25303;48.896;13.342;2023-04-01T06:32:30;2.00;;;0.40;;
39612;SDS011;25303;48.896;13.342;2023-04-01T06:35:41;4.20;;;0.57;;
39612;SDS011;25303;48.896;13.342;2023-04-01T06:38:43;2.08;;;0.60;;
39612;SDS011;25303;48.896;13.342;2023-04-01T06:45:10;2.67;;;0.70;;
39612;SDS011;25303;48.896;13.342;2023-04-01T06:48:27;3.42;;;1.30;;
39612;SDS011;25303;48.896;13.342;2023-04-01T06:51:51;3.47;;;1.05;;
39612;SDS011;25303;48.896;13.342;2023-04-01T06:55:00;3.58;;;2.00;;
39612;SDS011;25303;48.896;13.342;2023-04-01T06:58:10;18.35;;;7.43;;
39612;SDS011;25303;48.896;13.342;2023-04-01T07:01:02;9.40;;;4.40;;
39612;SDS011;25303;48.896;13.342;2023-04-01T07:03:51;11.43;;;5.65;;
39612;SDS011;25303;48.896;13.342;2023-04-01T07:06:39;4.05;;;2.30;;
39612;SDS011;25303;48.896;13.342;2023-04-01T07:09:28;2.53;;;1.50;;
39612;SDS011;25303;48.896;13.342;2023-04-01T07:12:37;2.17;;;1.00;;
39612;SDS011;25303;48.896;13.342;2023-04-01T07:15:46;2.13;;;0.73;;
39612;SDS011;25303;48.896;13.342;2023-04-01T07:18:41;2.33;;;0.60;;
39612;SDS011;25303;48.896;13.342;2023-04-01T07:21:30;1.35;;;0.60;;
39612;SDS011;25303;48.896;13.342;2023-04-01T07:24:29;1.48;;;0.47;;
39612;SDS011;25303;48.896;13.342;2023-04-01T07:27:18;1.38;;;0.50;;
39612;SDS011;25303;48.896;13.342;2023-04-01T07:30:03;1.80;;;0.40;;
39612;SDS011;25303;48.896;13.342;2023-04-01T07:32:47;0.50;;;0.35;;
39612;SDS011;25303;48.896;13.342;2023-04-01T07:35:36;2.60;;;0.50;;
39612;SDS011;25303;48.896;13.342;2023-04-01T07:38:28;0.60;;;0.40;;
39612;SDS011;25303;48.896;13.342;2023-04-01T07:41:21;1.70;;;0.40;;
39612;SDS011;25303;48.896;13.342;2023-04-01T07:44:10;1.38;;;0.60;;
39612;SDS011;25303;48.896;13.342;2023-04-01T07:47:05;1.48;;;0.47;;
39612;SDS011;25303;48.896;13.342;2023-04-01T07:50:08;1.40;;;0.70;;
39612;SDS011;25303;48.896;13.342;2023-04-01T07:53:00;1.67;;;0.45;;
39612;SDS011;25303;48.896;13.342;2023-04-01T07:58:44;2.88;;;0.80;;
39612;SDS011;25303;48.896;13.342;2023-04-01T08:02:05;2.35;;;0.70;;
39612;SDS011;25303;48.896;13.342;2023-04-01T08:04:55;1.50;;;0.40;;
39612;SDS011;25303;48.896;13.342;2023-04-01T08:07:48;1.75;;;0.57;;
39612;SDS011;25303;48.896;13.342;2023-04-01T08:11:00;0.93;;;0.57;;
39612;SDS011;25303;48.896;13.342;2023-04-01T08:14:08;1.30;;;0.70;;
39612;SDS011;25303;48.896;13.342;2023-04-01T08:17:39;1.88;;;0.85;;
39612;SDS011;25303;48.896;13.342;2023-04-01T08:20:34;1.77;;;0.63;;
39612;SDS011;25303;48.896;13.342;2023-04-01T08:23:22;1.10;;;0.52;;
39612;SDS011;25303;48.896;13.342;2023-04-01T08:26:10;0.75;;;0.35;;
39612;SDS011;25303;48.896;13.342;2023-04-01T08:28:59;1.48;;;0.40;;
39612;SDS011;25303;48.896;13.342;2023-04-01T08:31:48;0.95;;;0.50;;
39612;SDS011;25303;48.896;13.342;2023-04-01T08:34:38;2.05;;;0.50;;
39612;SDS011;25303;48.896;13.342;2023-04-01T08:37:31;2.95;;;0.40;;
39612;SDS011;25303;48.896;13.342;2023-04-01T08:40:33;1.00;;;0.60;;
39612;SDS011;25303;48.896;13.342;2023-04-01T08:43:53;1.10;;;0.60;;
39612;SDS011;25303;48.896;13.342;2023-04-01T08:50:28;0.82;;;0.40;;
39612;SDS011;25303;48.896;13.342;2023-04-01T08:53:47;1.45;;;0.63;;
39612;SDS011;25303;48.896;13.342;2023-04-01T08:56:47;2.38;;;0.65;;
39612;SDS011;25303;48.896;13.342;2023-04-01T08:59:41;1.13;;;0.57;;
39612;SDS011;25303;48.896;13.342;2023-04-01T09:03:30;2.60;;;0.73;;
39612;SDS011;25303;48.896;13.342;2023-04-01T09:06:35;1.50;;;0.40;;
39612;SDS011;25303;48.896;13.342;2023-04-01T09:09:37;0.80;;;0.43;;
39612;SDS011;25303;48.896;13.342;2023-04-01T09:13:04;1.35;;;0.68;;
39612;SDS011;25303;48.896;13.342;2023-04-01T09:16:03;2.90;;;0.60;;
39612;SDS011;25303;48.896;13.342;2023-04-01T09:22:21;1.33;;;0.40;;
39612;SDS011;25303;48.896;13.342;2023-04-01T09:25:33;1.00;;;0.38;;
39612;SDS011;25303;48.896;13.342;2023-04-01T09:28:33;1.83;;;0.60;;
39612;SDS011;25303;48.896;13.342;2023-04-01T09:34:57;1.08;;;0.50;;
39612;SDS011;25303;48.896;13.342;2023-04-01T09:37:54;1.73;;;0.60;;
39612;SDS011;25303;48.896;13.342;2023-04-01T09:40:54;3.45;;;1.10;;
39612;SDS011;25303;48.896;13.342;2023-04-01T09:43:56;1.65;;;0.80;;
39612;SDS011;25303;48.896;13.342;2023-04-01T09:46:57;1.58;;;0.60;;
39612;SDS011;25303;48.896;13.342;2023-04-01T09:50:03;2.25;;;0.57;;
39612;SDS011;25303;48.896;13.342;2023-04-01T09:53:05;2.53;;;0.70;;
39612;SDS011;25303;48.896;13.342;2023-04-01T09:59:32;1.67;;;0.60;;
39612;SDS011;25303;48.896;13.342;2023-04-01T10:02:45;3.17;;;0.60;;
39612;SDS011;25303;48.896;13.342;2023-04-01T10:05:58;1.67;;;0.70;;
39612;SDS011;25303;48.896;13.342;2023-04-01T10:16:06;2.03;;;0.47;;
39612;SDS011;25303;48.896;13.342;2023-04-01T10:19:33;0.97;;;0.40;;
39612;SDS011;25303;48.896;13.342;2023-04-01T10:22:37;2.00;;;0.70;;
39612;SDS011;25303;48.896;13.342;2023-04-01T10:29:02;2.05;;;0.60;;
39612;SDS011;25303;48.896;13.342;2023-04-01T10:35:30;1.15;;;0.47;;
39612;SDS011;25303;48.896;13.342;2023-04-01T10:46:02;1.75;;;0.40;;
39612;SDS011;25303;48.896;13.342;2023-04-01T10:49:20;1.00;;;0.30;;
39612;SDS011;25303;48.896;13.342;2023-04-01T10:59:57;13.48;;;6.68;;
39612;SDS011;25303;48.896;13.342;2023-04-01T11:21:21;2.38;;;0.90;;
39612;SDS011;25303;48.896;13.342;2023-04-01T11:28:01;2.88;;;0.52;;
39612;SDS011;25303;48.896;13.342;2023-04-01T11:31:04;2.25;;;0.50;;
39612;SDS011;25303;48.896;13.342;2023-04-01T11:34:01;1.30;;;0.50;;
39612;SDS011;25303;48.896;13.342;2023-04-01T11:36:56;2.22;;;0.98;;
39612;SDS011;25303;48.896;13.342;2023-04-01T11:39:59;1.15;;;0.68;;
39612;SDS011;25303;48.896;13.342;2023-04-01T11:43:09;1.45;;;0.40;;
39612;SDS011;25303;48.896;13.342;2023-04-01T11:46:36;1.90;;;0.38;;
39612;SDS011;25303;48.896;13.342;2023-04-01T11:49:29;2.33;;;0.60;;
39612;SDS011;25303;48.896;13.342;2023-04-01T11:52:38;3.42;;;1.05;;
39612;SDS011;25303;48.896;13.342;2023-04-01T11:55:35;5.15;;;1.42;;
39612;SDS011;25303;48.896;13.342;2023-04-01T11:58:36;3.72;;;1.40;;
39612;SDS011;25303;48.896;13.342;2023-04-01T12:01:45;5.95;;;2.15;;
39612;SDS011;25303;48.896;13.342;2023-04-01T12:07:52;2.90;;;0.83;;
39612;SDS011;25303;48.896;13.342;2023-04-01T12:10:45;2.60;;;0.52;;
39612;SDS011;25303;48.896;13.342;2023-04-01T12:13:37;1.25;;;0.47;;
39612;SDS011;25303;48.896;13.342;2023-04-01T12:16:37;1.35;;;0.50;;
39612;SDS011;25303;48.896;13.342;2023-04-01T12:19:35;2.60;;;0.80;;
39612;SDS011;25303;48.896;13.342;2023-04-01T12:22:29;1.42;;;0.75;;
39612;SDS011;25303;48.896;13.342;2023-04-01T12:25:27;3.47;;;1.88;;
39612;SDS011;25303;48.896;13.342;2023-04-01T12:28:25;3.22;;;1.30;;
39612;SDS011;25303;48.896;13.342;2023-04-01T12:31:25;2.47;;;0.90;;
39612;SDS011;25303;48.896;13.342;2023-04-01T12:34:35;1.95;;;0.82;;
39612;SDS011;25303;48.896;13.342;2023-04-01T12:37:35;23.77;;;7.45;;
39612;SDS011;25303;48.896;13.342;2023-04-01T12:40:31;9.75;;;3.53;;
39612;SDS011;25303;48.896;13.342;2023-04-01T12:43:31;6.97;;;3.20;;
39612;SDS011;25303;48.896;13.342;2023-04-01T12:46:40;5.28;;;2.30;;
39612;SDS011;25303;48.896;13.342;2023-04-01T12:49:42;7.60;;;3.08;;
39612;SDS011;25303;48.896;13.342;2023-04-01T12:52:39;8.13;;;3.58;;
39612;SDS011;25303;48.896;13.342;2023-04-01T12:55:40;2.53;;;1.30;;
39612;SDS011;25303;48.896;13.342;2023-04-01T13:05:06;2.22;;;1.13;;
39612;SDS011;25303;48.896;13.342;2023-04-01T13:08:07;1.23;;;0.60;;
39612;SDS011;25303;48.896;13.342;2023-04-01T13:11:08;1.67;;;0.63;;
39612;SDS011;25303;48.896;13.342;2023-04-01T13:14:04;1.90;;;0.88;;
39612;SDS011;25303;48.896;13.342;2023-04-01T13:20:02;3.70;;;1.08;;
39612;SDS011;25303;48.896;13.342;2023-04-01T13:22:57;2.35;;;0.98;;
39612;SDS011;25303;48.896;13.342;2023-04-01T13:25:49;2.78;;;1.20;;
39612;SDS011;25303;48.896;13.342;2023-04-01T13:28:52;1.92;;;0.77;;
39612;SDS011;25303;48.896;13.342;2023-04-01T13:31:45;3.72;;;1.45;;
39612;SDS011;25303;48.896;13.342;2023-04-01T13:34:39;5.78;;;1.90;;
39612;SDS011;25303;48.896;13.342;2023-04-01T13:37:33;3.80;;;1.70;;
39612;SDS011;25303;48.896;13.342;2023-04-01T13:40:31;6.07;;;2.40;;
39612;SDS011;25303;48.896;13.342;2023-04-01T13:43:45;21.35;;;5.43;;
39612;SDS011;25303;48.896;13.342;2023-04-01T13:46:39;26.50;;;7.88;;
39612;SDS011;25303;48.896;13.342;2023-04-01T13:49:36;9.25;;;2.80;;
39612;SDS011;25303;48.896;13.342;2023-04-01T13:52:33;8.38;;;3.17;;
39612;SDS011;25303;48.896;13.342;2023-04-01T13:55:30;16.63;;;5.80;;
39612;SDS011;25303;48.896;13.342;2023-04-01T14:01:46;24.60;;;6.68;;
39612;SDS011;25303;48.896;13.342;2023-04-01T14:04:43;8.90;;;3.70;;
39612;SDS011;25303;48.896;13.342;2023-04-01T14:07:36;2.72;;;1.63;;
39612;SDS011;25303;48.896;13.342;2023-04-01T14:10:31;1.00;;;0.70;;
39612;SDS011;25303;48.896;13.342;2023-04-01T14:13:23;1.33;;;0.88;;
39612;SDS011;25303;48.896;13.342;2023-04-01T14:16:29;0.57;;;0.30;;
39612;SDS011;25303;48.896;13.342;2023-04-01T14:19:40;0.93;;;0.63;;
39612;SDS011;25303;48.896;13.342;2023-04-01T14:22:34;0.38;;;0.30;;
39612;SDS011;25303;48.896;13.342;2023-04-01T14:25:32;0.20;;;0.20;;
39612;SDS011;25303;48.896;13.342;2023-04-01T14:28:31;0.20;;;0.20;;
39612;SDS011;25303;48.896;13.342;2023-04-01T14:31:41;0.25;;;0.10;;
39612;SDS011;25303;48.896;13.342;2023-04-01T14:34:41;0.35;;;0.30;;
39612;SDS011;25303;48.896;13.342;2023-04-01T14:37:43;0.75;;;0.20;;
39612;SDS011;25303;48.896;13.342;2023-04-01T14:40:48;0.50;;;0.30;;
39612;SDS011;25303;48.896;13.342;2023-04-01T14:43:42;1.48;;;0.80;;
39612;SDS011;25303;48.896;13.342;2023-04-01T14:46:48;1.08;;;0.40;;
39612;SDS011;25303;48.896;13.342;2023-04-01T14:49:45;0.40;;;0.30;;
39612;SDS011;25303;48.896;13.342;2023-04-01T14:52:30;2.22;;;0.60;;
39612;SDS011;25303;48.896;13.342;2023-04-01T14:55:25;1.45;;;0.80;;
39612;SDS011;25303;48.896;13.342;2023-04-01T14:58:15;17.45;;;7.65;;
39612;SDS011;25303;48.896;13.342;2023-04-01T15:01:06;7.32;;;3.08;;
39612;SDS011;25303;48.896;13.342;2023-04-01T15:04:00;1.15;;;0.60;;
39612;SDS011;25303;48.896;13.342;2023-04-01T15:07:01;1.90;;;1.10;;
39612;SDS011;25303;48.896;13.342;2023-04-01T15:09:59;1.10;;;0.80;;
39612;SDS011;25303;48.896;13.342;2023-04-01T15:12:52;2.33;;;1.08;;
39612;SDS011;25303;48.896;13.342;2023-04-01T15:15:53;0.65;;;0.50;;
39612;SDS011;25303;48.896;13.342;2023-04-01T15:18:45;1.77;;;1.17;;
39612;SDS011;25303;48.896;13.342;2023-04-01T15:21:43;0.70;;;0.60;;
39612;SDS011;25303;48.896;13.342;2023-04-01T15:24:37;0.98;;;0.88;;
39612;SDS011;25303;48.896;13.342;2023-04-01T15:27:31;2.78;;;1.88;;
39612;SDS011;25303;48.896;13.342;2023-04-01T15:30:32;6.68;;;3.53;;
39612;SDS011;25303;48.896;13.342;2023-04-01T15:36:22;9.60;;;6.60;;
39612;SDS011;25303;48.896;13.342;2023-04-01T15:39:13;2.03;;;1.20;;
39612;SDS011;25303;48.896;13.342;2023-04-01T15:42:14;1.23;;;0.80;;
39612;SDS011;25303;48.896;13.342;2023-04-01T15:45:12;3.85;;;2.47;;
39612;SDS011;25303;48.896;13.342;2023-04-01T15:48:02;1.27;;;0.50;;
39612;SDS011;25303;48.896;13.342;2023-04-01T15:51:01;5.32;;;3.22;;
39612;SDS011;25303;48.896;13.342;2023-04-01T15:53:53;23.13;;;13.48;;
39612;SDS011;25303;48.896;13.342;2023-04-01T15:56:56;2.92;;;1.83;;
39612;SDS011;25303;48.896;13.342;2023-04-01T16:03:13;1.50;;;0.80;;
39612;SDS011;25303;48.896;13.342;2023-04-01T16:06:08;1.13;;;0.88;;
39612;SDS011;25303;48.896;13.342;2023-04-01T16:09:10;0.50;;;0.40;;
39612;SDS011;25303;48.896;13.342;2023-04-01T16:12:04;0.43;;;0.43;;
39612;SDS011;25303;48.896;13.342;2023-04-01T16:14:59;0.50;;;0.40;;
39612;SDS011;25303;48.896;13.342;2023-04-01T16:17:58;0.68;;;0.38;;
39612;SDS011;25303;48.896;13.342;2023-04-01T16:21:00;0.60;;;0.30;;
39612;SDS011;25303;48.896;13.342;2023-04-01T16:23:48;0.52;;;0.40;;
39612;SDS011;25303;48.896;13.342;2023-04-01T16:26:34;0.47;;;0.40;;
39612;SDS011;25303;48.896;13.342;2023-04-01T16:29:26;0.73;;;0.65;;
39612;SDS011;25303;48.896;13.342;2023-04-01T16:32:37;1.00;;;0.80;;
39612;SDS011;25303;48.896;13.342;2023-04-01T16:35:31;0.50;;;0.22;;
39612;SDS011;25303;48.896;13.342;2023-04-01T16:38:25;0.57;;;0.30;;
39612;SDS011;25303;48.896;13.342;2023-04-01T16:41:16;0.70;;;0.30;;
39612;SDS011;25303;48.896;13.342;2023-04-01T16:44:09;0.30;;;0.20;;
39612;SDS011;25303;48.896;13.342;2023-04-01T16:47:05;1.52;;;1.33;;
39612;SDS011;25303;48.896;13.342;2023-04-01T16:49:52;0.50;;;0.40;;
39612;SDS011;25303;48.896;13.342;2023-04-01T16:52:47;0.25;;;0.25;;
39612;SDS011;25303;48.896;13.342;2023-04-01T16:55:43;0.35;;;0.30;;
39612;SDS011;25303;48.896;13.342;2023-04-01T16:58:33;1.35;;;0.40;;
39612;SDS011;25303;48.896;13.342;2023-04-01T17:01:20;0.30;;;0.30;;
39612;SDS011;25303;48.896;13.342;2023-04-01T17:04:07;3.05;;;0.30;;
39612;SDS011;25303;48.896;13.342;2023-04-01T17:07:03;0.10;;;0.10;;
39612;SDS011;25303;48.896;13.342;2023-04-01T17:09:58;0.30;;;0.20;;
39612;SDS011;25303;48.896;13.342;2023-04-01T17:12:55;0.55;;;0.30;;
39612;SDS011;25303;48.896;13.342;2023-04-01T17:15:56;0.20;;;0.20;;
39612;SDS011;25303;48.896;13.342;2023-04-01T17:18:54;0.50;;;0.20;;
39612;SDS011;25303;48.896;13.342;2023-04-01T17:21:49;0.57;;;0.35;;
39612;SDS011;25303;48.896;13.342;2023-04-01T17:24:47;7.55;;;3.75;;
39612;SDS011;25303;48.896;13.342;2023-04-01T17:27:41;1.70;;;0.85;;
39612;SDS011;25303;48.896;13.342;2023-04-01T17:30:33;0.88;;;0.50;;
39612;SDS011;25303;48.896;13.342;2023-04-01T17:40:15;1.00;;;0.30;;
39612;SDS011;25303;48.896;13.342;2023-04-01T17:43:12;0.50;;;0.40;;
39612;SDS011;25303;48.896;13.342;2023-04-01T17:46:05;0.43;;;0.40;;
39612;SDS011;25303;48.896;13.342;2023-04-01T17:49:08;0.43;;;0.35;;
39612;SDS011;25303;48.896;13.342;2023-04-01T17:52:03;0.60;;;0.50;;
39612;SDS011;25303;48.896;13.342;2023-04-01T17:55:03;0.60;;;0.32;;
39612;SDS011;25303;48.896;13.342;2023-04-01T17:58:09;1.33;;;0.38;;
39612;SDS011;25303;48.896;13.342;2023-04-01T18:01:08;2.42;;;0.38;;
39612;SDS011;25303;48.896;13.342;2023-04-01T18:04:09;0.30;;;0.20;;
39612;SDS011;25303;48.896;13.342;2023-04-01T18:07:07;0.43;;;0.20;;
39612;SDS011;25303;48.896;13.342;2023-04-01T18:10:16;0.43;;;0.30;;
39612;SDS011;25303;48.896;13.342;2023-04-01T18:13:11;0.30;;;0.20;;
39612;SDS011;25303;48.896;13.342;2023-04-01T18:16:22;1.00;;;0.47;;
39612;SDS011;25303;48.896;13.342;2023-04-01T18:19:14;0.55;;;0.30;;
39612;SDS011;25303;48.896;13.342;2023-04-01T18:27:39;0.73;;;0.30;;
39612;SDS011;25303;48.896;13.342;2023-04-01T18:30:28;0.60;;;0.30;;
39612;SDS011;25303;48.896;13.342;2023-04-01T18:33:16;0.57;;;0.30;;
39612;SDS011;25303;48.896;13.342;2023-04-01T18:36:13;0.82;;;0.52;;
39612;SDS011;25303;48.896;13.342;2023-04-01T18:39:02;2.35;;;0.77;;
39612;SDS011;25303;48.896;13.342;2023-04-01T18:41:53;0.77;;;0.60;;
39612;SDS011;25303;48.896;13.342;2023-04-01T18:44:43;2.60;;;1.30;;
39612;SDS011;25303;48.896;13.342;2023-04-01T18:47:34;8.55;;;3.15;;
39612;SDS011;25303;48.896;13.342;2023-04-01T18:50:27;20.25;;;7.38;;
39612;SDS011;25303;48.896;13.342;2023-04-01T18:53:19;37.10;;;13.80;;
39612;SDS011;25303;48.896;13.342;2023-04-01T18:56:08;34.83;;;14.55;;
39612;SDS011;25303;48.896;13.342;2023-04-01T18:58:54;41.00;;;11.55;;
39612;SDS011;25303;48.896;13.342;2023-04-01T19:01:47;13.23;;;5.53;;
39612;SDS011;25303;48.896;13.342;2023-04-01T19:04:42;8.73;;;3.80;;
39612;SDS011;25303;48.896;13.342;2023-04-01T19:10:36;3.65;;;1.70;;
39612;SDS011;25303;48.896;13.342;2023-04-01T19:13:29;1.70;;;0.95;;
39612;SDS011;25303;48.896;13.342;2023-04-01T19:16:21;9.98;;;3.17;;